• Join FlightAware (Why Join?)
  • Login
  • US Flag 
04:37AM EDT


 

Airport Tracker/Info


-or-


 

Live Flight TrackerFlight Track Log ✈ EJA142 ✈ 26-Aug-2014 ✈ KFOK - KPDX

Flight Track Log - Related Links

Times and Time Zones

All times are in EDT time to prevent confusion due to time zone crossing. See the EJA142 flight status page for this flight to view local times or setup timezone preferences in your user account.

Time Position Orientation Groundspeed Altitude Reporting Facility
EDT Latitude Longitude Course Direction KTS MPH feet Rate Location/Type
02:10PM 40.8667 -72.6000 14° North 175 201 1,600  Level New York TRACON
02:11PM 40.9167 -72.5833 14° North 227 261 4,200 2,820 Climbing New York TRACON
02:12PM 40.9000 -72.6833 258° West 275 316 7,300 1,860 Climbing New York TRACON
02:13PM 40.8833 -72.7833 258° West 290 334 8,000 300 Climbing New York TRACON
02:14PM 40.8333 -72.8833 237° Southwest 287 330 8,000  Level New York TRACON
02:15PM 40.8500 -72.9833 282° West 279 321 8,000  Level New York TRACON
02:16PM 40.8333 -73.0833 258° West 286 329 8,000 60 Level New York TRACON
02:17PM 40.8333 -73.1833 270° West 284 327 8,200 900 Climbing New York TRACON
02:18PM 40.8167 -73.3000 259° West 292 336 9,800 1,560 Climbing New York TRACON
02:19PM 40.8500 -73.4000 294° West 348 400 11,400 2,280 Climbing New York TRACON
02:20PM 40.9333 -73.4833 323° Northwest 356 410 14,400 1,620 Climbing New York TRACON
02:23PM 41.0767 -73.7328 307° West 383 441 17,000 720 Climbing New York Center
02:24PM 41.1500 -73.8711 305° West 406 467 17,000  Level New York Center
02:25PM 41.2075 -73.9811 305° West 418 481 17,000  Level New York Center
02:26PM 41.2828 -74.1228 305° West 418 481 17,100 840 Climbing New York Center
02:27PM 41.3439 -74.2364 306° West 424 488 18,800 1,620 Climbing New York Center
02:28PM 41.4189 -74.3814 305° West 429 494 20,400 2,580 Climbing New York Center
02:29PM 41.4711 -74.5061 299° West 434 499 24,000 2,820 Climbing New York Center
02:30PM 41.5292 -74.6422 300° West 428 493 26,100 1,860 Climbing New York Center
02:31PM 41.5892 -74.7817 300° West 428 493 27,800 1,800 Climbing New York Center
02:32PM 41.6528 -74.9269 300° West 441 507 29,700 1,740 Climbing New York Center
02:33PM 41.7142 -75.0725 300° West 446 513 31,400 2,040 Climbing New York Center
02:34PM 41.7831 -75.2383 299° West 458 527 33,800 2,040 Climbing New York Center
02:35PM 41.8461 -75.3844 300° West 458 527 35,500 1,980 Climbing New York Center
02:36PM 41.9089 -75.5339 299° West 458 527 37,800 1,980 Climbing New York Center
02:37PM 41.9675 -75.6803 298° West 448 516 39,500 1,740 Climbing New York Center
02:38PM 42.0281 -75.8242 300° West 448 516 41,300 1,380 Climbing New York Center
02:39PM 42.0789 -75.9511 298° West 443 510 42,300 840 Climbing New York Center
02:40PM 42.1372 -76.0900 300° West 438 504 43,000 300 Climbing New York Center
02:41PM 42.1997 -76.2706 295° West 451 519 43,000  Level Cleveland Center
02:42PM 42.2497 -76.4258 294° West 459 528 43,000  Level Cleveland Center
02:43PM 42.3008 -76.5881 293° West 466 536 43,000  Level Cleveland Center
02:44PM 42.3528 -76.7514 293° West 470 541 43,000  Level Cleveland Center
02:45PM 42.4036 -76.9122 293° West 471 542 43,000  Level Cleveland Center
02:46PM 42.4639 -77.1058 293° West 469 540 43,000  Level Cleveland Center
02:47PM 42.5142 -77.2678 293° West 466 536 43,000  Level Cleveland Center
02:48PM 42.5639 -77.4292 293° West 467 537 43,000  Level Cleveland Center
02:49PM 42.6172 -77.6028 293° West 469 540 43,000  Level Cleveland Center
02:50PM 42.6661 -77.7656 292° West 471 542 43,000  Level Cleveland Center
02:51PM 42.7200 -77.9408 293° West 476 548 43,000  Level Cleveland Center
02:52PM 42.7686 -78.1039 292° West 469 540 43,000  Level Cleveland Center
02:53PM 42.8175 -78.2658 292° West 465 535 43,000  Level Cleveland Center
02:54PM 42.8642 -78.4258 292° West 456 525 43,000  Level Cleveland Center
02:55PM 42.9211 -78.6197 292° West 460 529 43,000  Level Cleveland Center
02:56PM 42.9358 -78.7894 277° West 454 522 43,000  Level Cleveland Center
02:57PM 42.9456 -78.9622 274° West 456 525 43,000  Level Cleveland Center
02:58PM 42.9522 -79.0997 274° West 456 525 43,000  Level Cleveland Center
02:59PM 42.9608 -79.2717 274° West 455 524 43,000  Level Cleveland Center
03:00PM 42.9692 -79.4422 274° West 454 522 43,000  Level Cleveland Center
03:01PM 42.9778 -79.6497 273° West 456 525 43,000  Level Cleveland Center
03:02PM 42.9844 -79.8225 273° West 456 525 43,000  Level Cleveland Center
03:03PM 42.9914 -80.0108 273° West 458 527 43,000  Level Cleveland Center
03:04PM 43.0008 -80.1764 275° West 456 525 43,000  Level Cleveland Center
03:05PM 43.0083 -80.3542 273° West 448 516 43,000  Level Cleveland Center
03:06PM 43.0153 -80.5311 273° West 447 514 43,000  Level Cleveland Center
03:08PM 43.0217 -80.7075 273° West 446 513 43,000  Level Cleveland Center
03:09PM 43.0281 -80.8839 273° West 446 513 43,000  Level Cleveland Center
03:10PM 43.0167 -81.0500 265° West 450 518 43,000  Level Toronto Center
03:11PM 43.0333 -81.2000 279° West 450 518 43,000  Level Toronto Center
03:12PM 43.0667 -81.3833 284° West 450 518 43,000  Level Toronto Center
03:13PM 43.0833 -81.5500 278° West 450 518 43,000  Level Toronto Center
03:14PM 43.1167 -81.7167 285° West 440 506 43,000  Level Toronto Center
03:15PM 43.1333 -81.8667 279° West 440 506 43,000  Level Toronto Center
03:16PM 43.1500 -82.0500 277° West 450 518 43,000  Level Toronto Center
03:17PM 43.1833 -82.2167 285° West 450 518 43,000  Level Toronto Center
03:18PM 43.2000 -82.3833 278° West 440 506 43,000  Level Toronto Center
03:19PM 43.2333 -82.5333 287° West 440 506 43,000  Level Toronto Center
03:20PM 43.2333 -82.7000 270° West 450 518 43,000  Level Toronto Center
03:21PM 43.2833 -82.8833 291° West 450 518 43,000  Level Toronto Center
03:22PM 43.3333 -83.0500 292° West 450 518 43,000  Level Toronto Center
03:23PM 43.3833 -83.2167 292° West 450 518 43,000  Level Toronto Center
03:24PM 43.4167 -83.3500 289° West 450 518 43,000  Level Toronto Center
03:24PM 43.4422 -83.4244 295° West 441 507 43,000  Level Cleveland Center
03:25PM 43.4906 -83.6114 290° West 437 503 43,000  Level Cleveland Center
03:26PM 43.5297 -83.7664 289° West 435 501 43,000  Level Cleveland Center
03:27PM 43.5694 -83.9219 289° West 435 501 43,000  Level Cleveland Center
03:28PM 43.6097 -84.0842 289° West 428 493 43,000  Level Cleveland Center
03:29PM 43.6497 -84.2403 290° West 429 494 43,000  Level Cleveland Center
03:30PM 43.6883 -84.3972 289° West 430 495 43,000  Level Cleveland Center
03:31PM 43.7281 -84.5544 289° West 436 502 43,000  Level Cleveland Center
03:32PM 43.7656 -84.7106 288° West 433 498 43,000  Level Minneapolis Center
03:33PM 43.8119 -84.8961 289° West 432 497 43,000  Level Minneapolis Center
03:34PM 43.8483 -85.0483 288° West 423 487 43,000  Level Minneapolis Center
03:35PM 43.8844 -85.2003 288° West 421 484 43,000  Level Minneapolis Center
03:36PM 43.9222 -85.3542 289° West 421 484 43,000  Level Minneapolis Center
03:38PM 43.9553 -85.5081 287° West 421 484 43,000  Level Minneapolis Center
03:39PM 43.9908 -85.6931 285° West 421 484 43,000  Level Minneapolis Center
03:40PM 44.0203 -85.8503 285° West 421 484 43,000  Level Minneapolis Center
03:41PM 44.0508 -86.0075 285° West 421 484 43,000  Level Minneapolis Center
03:42PM 44.0808 -86.1664 285° West 423 487 43,000  Level Minneapolis Center
03:43PM 44.1100 -86.3222 285° West 423 487 43,000 -60 Level Minneapolis Center
03:44PM 44.1381 -86.4769 284° West 419 482 42,900  Descending Minneapolis Center
03:45PM 44.1722 -86.6653 284° West 418 481 43,000  Climbing Minneapolis Center
03:46PM 44.2031 -86.8286 285° West 428 493 43,000 -60 Level Minneapolis Center
03:47PM 44.2319 -86.9889 284° West 428 493 42,900  Descending Minneapolis Center
03:48PM 44.2614 -87.1511 284° West 429 494 43,000  Climbing Minneapolis Center
03:49PM 44.2908 -87.3136 284° West 429 494 43,000  Level Minneapolis Center
03:50PM 44.3189 -87.4733 284° West 429 494 43,000  Level Minneapolis Center
03:51PM 44.3467 -87.6311 284° West 425 489 43,000  Level Minneapolis Center
03:52PM 44.3808 -87.8217 284° West 425 489 43,000  Level Minneapolis Center
03:53PM 44.4078 -87.9817 283° West 425 489 43,000  Level Minneapolis Center
03:54PM 44.4344 -88.1414 283° West 425 489 43,000  Level Minneapolis Center
03:55PM 44.4617 -88.2986 284° West 421 484 43,000  Level Minneapolis Center
03:56PM 44.4872 -88.4536 283° West 416 479 43,000  Level Minneapolis Center
03:57PM 44.5178 -88.6447 283° West 418 481 43,000  Level Minneapolis Center
03:58PM 44.5439 -88.8025 283° West 418 481 43,000  Level Minneapolis Center
03:59PM 44.5692 -88.9597 283° West 418 481 43,000  Level Minneapolis Center
04:00PM 44.5936 -89.1175 282° West 418 481 43,000  Level Minneapolis Center
04:01PM 44.6197 -89.2753 283° West 417 480 43,000  Level Minneapolis Center
04:02PM 44.6439 -89.4325 282° West 417 480 43,000  Level Minneapolis Center
04:03PM 44.6722 -89.6189 282° West 412 474 43,000  Level Minneapolis Center
04:04PM 44.6961 -89.7711 283° West 404 465 43,000  Level Minneapolis Center
04:05PM 44.7197 -89.9250 282° West 404 465 43,000  Level Minneapolis Center
04:06PM 44.7428 -90.0792 282° West 404 465 43,000  Level Minneapolis Center
04:07PM 44.7664 -90.2336 282° West 405 466 43,000  Level Minneapolis Center
04:09PM 44.7936 -90.4183 282° West 405 466 43,000  Level Minneapolis Center
04:10PM 44.8139 -90.5525 282° West 404 465 43,000  Level Minneapolis Center
04:11PM 44.8403 -90.7406 281° West 405 466 43,000  Level Minneapolis Center
04:12PM 44.8619 -90.8964 281° West 407 468 43,000  Level Minneapolis Center
04:13PM 44.8833 -91.0508 281° West 406 467 43,000  Level Minneapolis Center
04:14PM 44.9044 -91.2069 281° West 406 467 43,000  Level Minneapolis Center
04:15PM 44.9264 -91.3619 281° West 406 467 43,000  Level Minneapolis Center
04:16PM 44.9475 -91.5183 281° West 406 467 43,000  Level Minneapolis Center
04:17PM 44.9736 -91.7058 281° West 406 467 43,000  Level Minneapolis Center
04:18PM 44.9944 -91.8625 281° West 407 468 43,000  Level Minneapolis Center
04:19PM 45.0178 -92.0192 282° West 407 468 43,000  Level Minneapolis Center
04:20PM 45.0383 -92.1764 281° West 408 470 43,000  Level Minneapolis Center
04:21PM 45.0592 -92.3350 281° West 411 473 43,000  Level Minneapolis Center
04:22PM 45.0797 -92.4942 280° West 415 478 43,000  Level Minneapolis Center
04:23PM 45.1056 -92.6847 281° West 415 478 43,000  Level Minneapolis Center
04:24PM 45.1247 -92.8453 280° West 417 480 43,000  Level Minneapolis Center
04:25PM 45.1453 -93.0042 280° West 416 479 43,000  Level Minneapolis Center
04:26PM 45.1644 -93.1656 280° West 419 482 43,000  Level Minneapolis Center
04:27PM 45.1867 -93.3564 279° West 416 479 43,000  Level Minneapolis Center
04:28PM 45.2058 -93.5169 280° West 417 480 43,000  Level Minneapolis Center
04:29PM 45.2247 -93.6794 279° West 418 481 43,000  Level Minneapolis Center
04:30PM 45.2433 -93.8414 279° West 418 481 43,000  Level Minneapolis Center
04:31PM 45.2619 -94.0042 279° West 418 481 43,000  Level Minneapolis Center
04:32PM 45.2842 -94.1986 279° West 419 482 43,000  Level Minneapolis Center
04:33PM 45.3025 -94.3631 279° West 419 482 43,000  Level Minneapolis Center
04:34PM 45.3194 -94.5242 279° West 419 482 43,000  Level Minneapolis Center
04:35PM 45.3397 -94.6992 279° West 419 482 43,000  Level Minneapolis Center
04:36PM 45.3569 -94.8631 279° West 419 482 43,000  Level Minneapolis Center
04:37PM 45.3753 -95.0286 279° West 421 484 43,000  Level Minneapolis Center
04:39PM 45.3911 -95.1922 278° West 421 484 43,000  Level Minneapolis Center
04:40PM 45.4117 -95.3911 278° West 422 486 43,000  Level Minneapolis Center
04:41PM 45.4278 -95.5542 278° West 422 486 43,000  Level Minneapolis Center
04:42PM 45.4444 -95.7189 278° West 422 486 43,000  Level Minneapolis Center
04:43PM 45.4606 -95.8839 278° West 422 486 43,000  Level Minneapolis Center
04:44PM 45.4764 -96.0486 278° West 422 486 43,000  Level Minneapolis Center
04:45PM 45.4939 -96.2453 277° West 422 486 43,000  Level Minneapolis Center
04:46PM 45.5094 -96.4094 278° West 422 486 43,000  Level Minneapolis Center
04:47PM 45.5244 -96.5725 278° West 421 484 43,000  Level Minneapolis Center
04:48PM 45.5394 -96.7361 278° West 421 484 43,000  Level Minneapolis Center
04:49PM 45.5533 -96.8994 277° West 420 483 43,000  Level Minneapolis Center
04:50PM 45.5711 -97.0933 278° West 419 482 43,000  Level Minneapolis Center
04:51PM 45.5856 -97.2622 277° West 424 488 43,000  Level Minneapolis Center
04:52PM 45.5994 -97.4275 277° West 424 488 43,000  Level Minneapolis Center
04:53PM 45.6125 -97.5922 277° West 424 488 43,000  Level Minneapolis Center
04:54PM 45.6267 -97.7589 277° West 423 487 43,000  Level Minneapolis Center
04:55PM 45.6386 -97.9256 276° West 424 488 43,000  Level Minneapolis Center
04:56PM 45.6553 -98.1264 277° West 423 487 43,000  Level Minneapolis Center
04:57PM 45.6681 -98.2928 276° West 422 486 43,000  Level Minneapolis Center
04:58PM 45.6806 -98.4594 276° West 423 487 43,000  Level Minneapolis Center
04:59PM 45.6928 -98.6258 276° West 423 487 43,000  Level Minneapolis Center
05:00PM 45.7042 -98.7917 276° West 422 486 43,000  Level Minneapolis Center
05:01PM 45.7153 -98.9550 276° West 422 486 43,000  Level Minneapolis Center
05:02PM 45.7289 -99.1531 276° West 421 484 43,000  Level Minneapolis Center
05:03PM 45.7392 -99.3172 275° West 419 482 43,000  Level Minneapolis Center
05:04PM 45.7506 -99.4844 276° West 419 482 43,000  Level Minneapolis Center
05:05PM 45.7617 -99.6503 276° West 419 482 43,000  Level Minneapolis Center
05:07PM 45.7728 -99.8169 276° West 419 482 43,000  Level Minneapolis Center
05:08PM 45.7844 -100.0153 275° West 420 483 43,000  Level Minneapolis Center
05:09PM 45.7936 -100.1817 275° West 420 483 43,000  Level Minneapolis Center
05:10PM 45.8031 -100.3503 275° West 422 486 43,000  Level Minneapolis Center
05:11PM 45.8131 -100.5169 275° West 422 486 43,000  Level Minneapolis Center
05:12PM 45.8228 -100.6864 275° West 423 487 43,000  Level Minneapolis Center
05:13PM 45.8339 -100.8922 275° West 430 495 43,000  Level Minneapolis Center
05:14PM 45.8422 -101.0647 274° West 431 496 43,000  Level Minneapolis Center
05:15PM 45.8511 -101.2381 274° West 433 498 43,000  Level Minneapolis Center
05:16PM 45.8594 -101.4094 274° West 433 498 43,000  Level Minneapolis Center
05:17PM 45.8686 -101.5819 274° West 433 498 43,000  Level Minneapolis Center
05:18PM 45.8767 -101.7894 273° West 434 499 43,000  Level Minneapolis Center
05:19PM 45.8839 -101.9589 274° West 433 498 43,000  Level Minneapolis Center
05:20PM 45.8917 -102.1294 274° West 433 498 43,000  Level Minneapolis Center
05:21PM 45.8986 -102.3014 273° West 433 498 43,000  Level Minneapolis Center
05:22PM 45.9044 -102.4744 273° West 433 498 43,000  Level Minneapolis Center
05:23PM 45.9128 -102.6828 273° West 435 501 43,000  Level Minneapolis Center
05:24PM 45.9186 -102.8367 273° West 440 506 43,000  Level Minneapolis Center
05:25PM 45.9250 -103.0103 273° West 440 506 43,000  Level Minneapolis Center
05:26PM 45.9306 -103.2233 272° West 440 506 43,000 -60 Level Minneapolis Center
05:27PM 45.9358 -103.4008 273° West 441 507 42,900  Descending Minneapolis Center
05:28PM 45.9389 -103.5714 272° West 438 504 43,000  Climbing Salt Lake Center
05:29PM 45.9442 -103.7478 273° West 439 505 43,000  Level Salt Lake Center
05:30PM 45.9489 -103.9594 272° West 439 505 43,000  Level Salt Lake Center
05:31PM 45.9539 -104.1378 272° West 441 507 43,000 -60 Level Salt Lake Center
05:32PM 45.9569 -104.3156 271° West 441 507 42,900  Descending Salt Lake Center
05:33PM 45.9608 -104.4919 272° West 441 507 43,000  Climbing Salt Lake Center
05:35PM 45.9644 -104.6711 272° West 442 509 43,000  Level Salt Lake Center
05:36PM 45.9658 -104.8494 271° West 444 511 43,000  Level Salt Lake Center
05:37PM 45.9703 -105.0658 272° West 447 514 43,000  Level Salt Lake Center
05:38PM 45.9736 -105.2472 272° West 449 517 43,000  Level Salt Lake Center
05:39PM 45.9769 -105.4261 272° West 450 518 43,000  Level Salt Lake Center
05:40PM 45.9781 -105.6056 271° West 450 518 43,000  Level Salt Lake Center
05:41PM 45.9800 -105.7886 271° West 451 519 43,000  Level Salt Lake Center
05:42PM 45.9794 -106.0061 270° West 454 522 43,000  Level Salt Lake Center
05:43PM 45.9828 -106.1900 272° West 455 524 43,000  Level Salt Lake Center
05:44PM 45.9847 -106.3761 271° West 459 528 43,000  Level Salt Lake Center
05:45PM 45.9858 -106.5619 271° West 462 532 43,000  Level Salt Lake Center
05:46PM 45.9875 -106.7486 271° West 463 533 43,000  Level Salt Lake Center
05:47PM 45.9881 -106.9356 270° West 465 535 43,000  Level Salt Lake Center
05:48PM 45.9864 -107.1578 269° West 467 537 43,000  Level Salt Lake Center
05:49PM 45.9856 -107.3450 270° West 473 544 43,000  Level Salt Lake Center
05:50PM 45.9842 -107.5308 269° West 471 542 43,000  Level Salt Lake Center
05:51PM 45.9833 -107.7181 270° West 471 542 43,000  Level Salt Lake Center
05:52PM 45.9817 -107.9075 269° West 475 547 43,000  Level Salt Lake Center
05:53PM 45.9797 -108.1344 269° West 475 547 43,000  Level Salt Lake Center
05:54PM 45.9783 -108.3217 269° West 474 545 43,000  Level Salt Lake Center
05:55PM 45.9764 -108.5164 269° West 484 557 43,000  Level Salt Lake Center
05:56PM 45.9728 -108.7103 269° West 487 560 43,000  Level Salt Lake Center
05:57PM 45.9686 -108.9028 268° West 487 560 43,000  Level Salt Lake Center
05:58PM 45.9639 -109.1319 268° West 482 555 43,000  Level Salt Lake Center
05:59PM 45.9600 -109.3253 268° West 482 555 43,000  Level Salt Lake Center
06:00PM 45.9558 -109.5217 268° West 494 568 43,000  Level Salt Lake Center
06:01PM 45.9514 -109.7172 268° West 494 568 43,000  Level Salt Lake Center
06:02PM 45.9453 -109.9133 268° West 494 568 43,000  Level Salt Lake Center
06:03PM 45.9394 -110.1097 268° West 495 570 43,000  Level Salt Lake Center
06:05PM 45.9331 -110.3450 268° West 495 570 43,000  Level Salt Lake Center
06:06PM 45.9261 -110.5417 267° West 495 570 43,000  Level Salt Lake Center
06:07PM 45.9211 -110.7506 268° West 494 568 43,000  Level Salt Lake Center
06:08PM 45.9144 -110.9503 267° West 494 568 43,000  Level Salt Lake Center
06:09PM 45.9086 -111.1553 268° West 509 586 43,000  Level Salt Lake Center
06:10PM 45.8978 -111.3756 266° West 511 588 43,000  Level Salt Lake Center
06:11PM 45.8878 -111.5747 266° West 496 571 43,000  Level Salt Lake Center
06:12PM 45.8783 -111.7736 266° West 496 571 43,000  Level Salt Lake Center
06:13PM 45.8692 -111.9753 266° West 497 572 43,000  Level Salt Lake Center
06:14PM 45.8597 -112.1750 266° West 497 572 43,000  Level Salt Lake Center
06:15PM 45.8619 -112.3775 271° West 497 572 43,000  Level Salt Lake Center
06:16PM 45.8614 -112.5961 270° West 498 573 43,000  Level Salt Lake Center
06:17PM 45.8603 -112.7978 270° West 498 573 43,000  Level Salt Lake Center
06:18PM 45.8603 -113.0014 270° West 499 574 43,000  Level Salt Lake Center
06:19PM 45.8589 -113.2042 270° West 499 574 43,000  Level Salt Lake Center
06:20PM 45.8578 -113.4058 270° West 499 574 43,000  Level Salt Lake Center
06:21PM 45.8561 -113.6089 269° West 499 574 43,000  Level Salt Lake Center
06:22PM 45.8597 -113.7953 272° West 494 568 43,000  Level Salt Lake Center
06:23PM 45.8564 -113.9978 269° West 500 575 43,000 -60 Level Salt Lake Center
06:24PM 45.8544 -114.1983 269° West 501 577 42,900  Descending Salt Lake Center
06:25PM 45.8519 -114.4450 269° West 502 578 43,000  Climbing Salt Lake Center
06:26PM 45.8492 -114.6425 269° West 503 579 43,000  Level Salt Lake Center
06:27PM 45.8461 -114.8414 269° West 502 578 43,000  Level Salt Lake Center
06:28PM 45.8425 -115.0397 269° West 502 578 43,000  Level Seattle Center
06:29PM 45.8383 -115.2367 268° West 501 577 43,000  Level Seattle Center
06:30PM 45.8342 -115.4336 268° West 501 577 43,000  Level Seattle Center
06:31PM 45.8286 -115.6289 268° West 501 577 43,000  Level Seattle Center
06:32PM 45.8222 -115.8272 267° West 501 577 43,000 -60 Level Seattle Center
06:33PM 45.8189 -116.0192 269° West 494 568 42,900  Descending Seattle Center
06:34PM 45.8125 -116.2164 267° West 495 570 43,000  Climbing Seattle Center
06:35PM 45.8061 -116.4128 267° West 495 570 43,000  Level Seattle Center
06:36PM 45.7983 -116.6472 267° West 494 568 43,000  Level Seattle Center
06:37PM 45.7917 -116.8431 267° West 494 568 43,000  Level Seattle Center
06:38PM 45.7847 -117.0372 267° West 493 567 43,000  Level Seattle Center
06:39PM 45.7775 -117.2336 267° West 493 567 43,000  Level Seattle Center
06:40PM 45.7692 -117.4292 267° West 493 567 43,000 -60 Level Seattle Center
06:41PM 45.7611 -117.6236 267° West 493 567 42,900  Descending Seattle Center
06:42PM 45.7531 -117.8183 267° West 492 566 43,000  Climbing Seattle Center
06:44PM 45.7431 -118.0136 266° West 492 566 43,000  Level Seattle Center
06:45PM 45.7344 -118.2075 266° West 492 566 43,000 -60 Level Seattle Center
06:46PM 45.7253 -118.4022 266° West 492 566 42,900  Descending Seattle Center
06:47PM 45.7156 -118.5931 266° West 491 565 43,000  Climbing Seattle Center
06:48PM 45.7033 -118.8233 266° West 488 562 43,000  Level Seattle Center
06:49PM 45.6897 -119.0147 264° West 488 562 43,000  Level Seattle Center
06:50PM 45.6669 -119.2039 260° West 487 560 43,000  Level Seattle Center
06:51PM 45.6447 -119.3925 260° West 486 559 43,000 -540 Level Seattle Center
06:52PM 45.6225 -119.5811 261° West 486 559 42,000 -2,400 Descending Seattle Center
06:53PM 45.5989 -119.7692 260° West 485 558 38,100 -3,600 Descending Seattle Center
06:54PM 45.5744 -119.9603 260° West 489 563 34,700 -3,240 Descending Seattle Center
06:55PM 45.5500 -120.1486 260° West 489 563 31,600 -3,360 Descending Seattle Center
06:56PM 45.5222 -120.3689 260° West 479 551 27,900 -3,180 Descending Seattle Center
06:57PM 45.5194 -120.5364 269° West 430 495 25,200 -1,920 Descending Seattle Center
06:58PM 45.5217 -120.6961 271° West 414 476 24,000 -600 Descending Seattle Center
06:59PM 45.5247 -120.8533 272° West 403 464 24,000 -240 Level Seattle Center
07:00PM 45.5264 -121.0128 271° West 403 464 23,600 -1,140 Descending Seattle Center
07:01PM 45.5281 -121.1694 271° West 402 463 21,800 -1,920 Descending Seattle Center
07:01PM 45.5289 -121.2306 271° West 398 458 21,100 -1,920 Descending Seattle Center
07:02PM 45.5283 -121.3219 270° West 394 453 19,900 -1,740 Descending Seattle Center
07:03PM 45.5300 -121.4631 271° West 364 419 18,100 -1,860 Descending Seattle Center
07:04PM 45.5292 -121.6206 270° West 335 386 16,200 -1,800 Descending Seattle Center
07:05PM 45.5300 -121.7378 271° West 325 374 14,700 -2,400 Descending Seattle Center
07:06PM 45.5319 -121.8514 271° West 314 361 11,900 -3,120 Descending Seattle Center
07:06PM 45.5328 -121.8789 272° West 308 354 11,200 -2,100 Descending Seattle Center
07:07PM 45.5283 -121.9958 267° West 299 344 9,300 -1,620 Descending Seattle Center
07:08PM 45.5217 -122.0844 264° West 288 331 8,300 -1,200 Descending Seattle Center
07:08PM 45.5236 -122.1067 277° West 278 320 8,100 -1,860 Descending Seattle Center
07:09PM 45.5186 -122.1844 265° West 220 253 6,300 -2,100 Descending Seattle Center
07:09PM 45.5200 -122.1969 279° West 233 268 6,000 -2,220 Descending Seattle Center
07:10PM 45.5156 -122.2753 265° West 224 258 4,100 -2,220 Descending Seattle Center
07:10PM 45.5164 -122.2931 274° West 228 262 3,800 -1,560 Descending Seattle Center
07:11PM 45.5136 -122.3717 267° West 212 244 2,400 -1,020 Descending Seattle Center
07:12PM 45.5286 -122.4242 292° West 148 170 1,900 -480 Descending Seattle Center
07:12PM 45.5314 -122.4325 295° West 157 181 1,900 -480 Level Seattle Center
07:13PM 45.5486 -122.4806 297° West 133 153 1,400 -600 Descending Seattle Center
07:14PM 45.5658 -122.5231 300° West 107 123 800 -660 Descending Seattle Center
07:15PM 45.5822 -122.5625 301° West 114 131 100 -660 Descending Seattle Center
07:18PM 45.5887 -122.5969 300° West  Level Estimated